createdAt,value
2019-02-22T00:03:48.359Z,45.00
2019-02-22T00:08:54.093Z,40.83
2019-02-22T00:14:03.610Z,40.40
2019-02-22T00:19:08.763Z,35.83
2019-02-22T00:24:14.498Z,38.17
2019-02-22T00:29:26.204Z,35.47
2019-02-22T00:34:34.202Z,34.30
2019-02-22T00:39:42.882Z,35.47
2019-02-22T00:44:54.413Z,35.20
2019-02-22T00:50:00.035Z,34.50
2019-02-22T00:55:08.157Z,37.00
2019-02-22T01:00:14.241Z,36.00
2019-02-22T01:05:19.949Z,41.37
2019-02-22T01:10:31.100Z,45.20
2019-02-22T01:15:32.969Z,38.00
2019-02-22T01:20:39.395Z,38.93
2019-02-22T01:25:44.946Z,37.90
2019-02-22T01:30:50.058Z,38.23
2019-02-22T01:35:55.223Z,39.00
2019-02-22T01:41:03.053Z,40.97
2019-02-22T01:46:08.553Z,40.27
2019-02-22T01:51:13.639Z,37.00
2019-02-22T01:56:18.775Z,37.93
2019-02-22T02:01:25.608Z,39.83
2019-02-22T02:06:31.423Z,37.80
2019-02-22T02:11:37.575Z,38.10
2019-02-22T02:16:42.736Z,37.23
2019-02-22T02:21:47.793Z,40.77
2019-02-22T02:26:52.849Z,37.30
2019-02-22T02:31:58.175Z,40.33
2019-02-22T02:37:03.185Z,43.37
2019-02-22T02:42:08.222Z,39.53
2019-02-22T02:47:13.225Z,49.20
2019-02-22T02:52:18.265Z,40.90
2019-02-22T02:57:24.193Z,33.07
2019-02-22T03:02:31.067Z,35.97
2019-02-22T03:07:43.467Z,35.73
2019-02-22T03:12:48.787Z,37.87
2019-02-22T03:17:53.807Z,36.33
2019-02-22T03:22:59.238Z,43.67
2019-02-22T03:28:04.692Z,36.77
2019-02-22T03:33:19.786Z,35.23
2019-02-22T03:38:25.052Z,35.60
2019-02-22T03:43:30.088Z,38.10
2019-02-22T03:48:35.047Z,38.30
2019-02-22T03:54:00.983Z,37.93
2019-02-22T03:59:06.507Z,37.13
2019-02-22T04:04:11.588Z,37.83
2019-02-22T04:09:17.109Z,36.30
2019-02-22T04:14:30.460Z,36.10
2019-02-22T04:19:35.448Z,38.20
2019-02-22T04:24:40.831Z,36.43
2019-02-22T04:29:45.886Z,36.17
2019-02-22T04:34:51.041Z,35.93
2019-02-22T04:39:57.242Z,34.70
2019-02-22T04:45:02.267Z,37.97
2019-02-22T04:50:08.656Z,34.67
2019-02-22T04:55:14.523Z,33.67
2019-02-22T05:00:19.540Z,35.47
2019-02-22T05:05:24.750Z,33.70
2019-02-22T05:10:30.012Z,32.90
2019-02-22T05:15:35.102Z,34.70
2019-02-22T05:20:40.939Z,30.33
2019-02-22T05:25:46.095Z,34.60
2019-02-22T05:30:51.227Z,33.67
2019-02-22T05:35:56.638Z,33.33
2019-02-22T05:41:01.756Z,32.03
2019-02-22T05:46:06.881Z,34.70
2019-02-22T05:51:13.689Z,31.03
2019-02-22T05:56:18.839Z,28.37
2019-02-22T06:01:24.031Z,32.63
2019-02-22T06:06:35.599Z,31.63
2019-02-22T06:11:40.960Z,36.77
2019-02-22T06:16:46.103Z,39.27
2019-02-22T06:21:51.389Z,35.90
2019-02-22T06:26:57.375Z,34.77
2019-02-22T06:32:03.051Z,31.67
2019-02-22T06:37:08.595Z,32.60
2019-02-22T06:42:13.640Z,30.37
2019-02-22T06:47:18.645Z,28.10
2019-02-22T06:52:25.445Z,27.70
2019-02-22T06:57:30.587Z,25.50
2019-02-22T07:02:36.284Z,27.40
2019-02-22T07:07:42.493Z,29.37
2019-02-22T07:12:56.997Z,28.23
2019-02-22T07:18:02.709Z,31.93
2019-02-22T07:23:08.943Z,27.27
2019-02-22T07:28:15.498Z,26.00
2019-02-22T07:33:31.917Z,27.27
2019-02-22T07:38:37.048Z,25.97
2019-02-22T07:43:43.727Z,25.13
2019-02-22T07:48:49.079Z,27.03
2019-02-22T07:53:54.461Z,26.67
2019-02-22T07:59:03.111Z,24.87
2019-02-22T08:04:08.501Z,22.03
2019-02-22T08:09:24.188Z,22.70
2019-02-22T08:14:29.471Z,22.00
2019-02-22T08:19:34.865Z,22.33
2019-02-22T08:24:43.479Z,20.47
2019-02-22T08:29:49.433Z,20.67
2019-02-22T08:34:56.533Z,20.23
2019-02-22T08:40:02.995Z,21.03
2019-02-22T08:45:24.292Z,21.40
2019-02-22T08:50:32.301Z,23.67
2019-02-22T08:55:39.210Z,23.40
2019-02-22T09:00:50.151Z,23.40
2019-02-22T09:06:08.171Z,22.37
2019-02-22T09:11:13.702Z,25.50
2019-02-22T09:16:19.535Z,26.23
2019-02-22T09:21:29.436Z,25.83
2019-02-22T09:26:38.848Z,27.80
2019-02-22T09:31:52.978Z,28.07
2019-02-22T09:36:59.651Z,30.73
2019-02-22T09:42:04.786Z,27.27
2019-02-22T09:47:11.808Z,30.17
2019-02-22T09:52:17.551Z,27.50
2019-02-22T09:57:24.386Z,24.33
2019-02-22T10:02:30.249Z,20.23
2019-02-22T10:07:35.693Z,25.37
2019-02-22T10:12:40.841Z,24.50
2019-02-22T10:17:46.349Z,21.47
2019-02-22T10:22:51.784Z,23.13
2019-02-22T10:28:18.091Z,23.47
2019-02-22T10:33:24.481Z,21.67
2019-02-22T10:38:36.142Z,22.40
2019-02-22T10:43:44.301Z,20.77
2019-02-22T10:48:51.990Z,25.40
2019-02-22T10:53:57.957Z,22.00
2019-02-22T10:59:03.118Z,20.13
2019-02-22T11:04:08.236Z,20.43
2019-02-22T11:09:14.738Z,22.53
2019-02-22T11:14:28.930Z,21.80
2019-02-22T11:19:29.168Z,22.90
2019-02-22T11:24:34.273Z,21.30
2019-02-22T11:29:39.808Z,21.50
2019-02-22T11:34:45.470Z,21.07
2019-02-22T11:39:50.886Z,22.33
2019-02-22T11:44:58.301Z,21.80
2019-02-22T11:50:04.486Z,17.73
2019-02-22T11:55:15.458Z,20.27
2019-02-22T12:00:22.268Z,18.83
2019-02-22T12:05:27.536Z,22.63
2019-02-22T12:10:33.332Z,22.43
2019-02-22T12:15:39.009Z,20.40
2019-02-22T12:20:44.112Z,20.70
2019-02-22T12:25:49.390Z,20.93
2019-02-22T12:30:54.421Z,19.10
2019-02-22T12:36:00.139Z,19.63
2019-02-22T12:41:05.577Z,22.37
2019-02-22T12:46:11.254Z,22.93
2019-02-22T12:51:16.371Z,23.60
2019-02-22T12:56:48.575Z,21.37
2019-02-22T13:01:30.076Z,21.87
2019-02-22T13:06:35.571Z,19.90
2019-02-22T13:11:40.736Z,18.70
2019-02-22T13:16:46.132Z,21.90
2019-02-22T13:21:51.368Z,21.93
2019-02-22T13:26:56.474Z,23.17
2019-02-22T13:32:02.920Z,20.40
2019-02-22T13:37:08.293Z,19.03
2019-02-22T13:42:13.380Z,20.20
2019-02-22T13:47:18.941Z,22.90
2019-02-22T13:52:25.802Z,22.40
2019-02-22T13:57:32.025Z,25.83
2019-02-22T14:02:37.825Z,24.03
2019-02-22T14:07:55.710Z,26.03
2019-02-22T14:13:01.887Z,25.17
2019-02-22T14:18:07.292Z,25.17
2019-02-22T14:23:13.996Z,24.47
2019-02-22T14:28:21.617Z,21.27
2019-02-22T14:33:26.794Z,24.07
2019-02-22T14:38:32.322Z,21.90
2019-02-22T14:43:37.535Z,23.53
2019-02-22T14:48:42.762Z,22.90
2019-02-22T14:53:47.824Z,24.67
2019-02-22T14:58:52.881Z,26.30
2019-02-22T15:03:57.977Z,25.93
2019-02-22T15:09:04.772Z,29.00
2019-02-22T15:14:18.120Z,30.43
2019-02-22T15:19:23.671Z,26.13
2019-02-22T15:24:37.362Z,20.40
2019-02-22T15:29:45.860Z,21.20
2019-02-22T15:34:51.218Z,19.93
2019-02-22T15:39:56.515Z,20.90
2019-02-22T15:45:04.663Z,25.03
2019-02-22T15:50:13.491Z,20.13
2019-02-22T15:55:18.887Z,24.00
2019-02-22T16:00:25.837Z,23.40
2019-02-22T16:05:33.976Z,25.50
2019-02-22T16:10:39.191Z,21.53
2019-02-22T16:15:44.781Z,18.90
2019-02-22T16:20:50.243Z,21.50
2019-02-22T16:25:55.344Z,19.77
2019-02-22T16:31:00.486Z,21.73
2019-02-22T16:36:05.614Z,20.13
2019-02-22T16:41:10.906Z,24.53
2019-02-22T16:46:16.633Z,26.00
2019-02-22T16:51:21.932Z,30.43
2019-02-22T16:56:27.112Z,25.73
2019-02-22T17:01:33.123Z,25.00
2019-02-22T17:06:55.779Z,25.13
2019-02-22T17:12:06.422Z,21.80
2019-02-22T17:17:08.500Z,24.07
2019-02-22T17:22:13.882Z,28.23
2019-02-22T17:27:20.204Z,24.97
2019-02-22T17:32:25.576Z,25.17
2019-02-22T17:37:30.754Z,27.97
2019-02-22T17:42:36.942Z,31.50
2019-02-22T17:47:44.958Z,29.70
2019-02-22T17:52:50.932Z,29.77
2019-02-22T17:57:57.042Z,29.27
2019-02-22T18:03:05.649Z,28.77
2019-02-22T18:08:11.907Z,30.27
2019-02-22T18:13:17.279Z,23.57
2019-02-22T18:18:23.391Z,23.37
2019-02-22T18:23:29.087Z,22.97
2019-02-22T18:28:36.036Z,24.40
2019-02-22T18:33:41.651Z,25.23
2019-02-22T18:38:47.792Z,32.27
2019-02-22T18:43:53.034Z,34.20
2019-02-22T18:48:58.860Z,30.27
2019-02-22T18:54:04.028Z,32.43
2019-02-22T18:59:10.341Z,29.93
2019-02-22T19:04:15.532Z,28.50
2019-02-22T19:09:20.984Z,31.63
2019-02-22T19:14:26.272Z,32.33
2019-02-22T19:19:31.848Z,32.13
2019-02-22T19:24:40.366Z,32.87
2019-02-22T19:29:45.822Z,34.37
2019-02-22T19:34:53.731Z,33.00
2019-02-22T19:39:59.291Z,34.13
2019-02-22T19:45:05.575Z,37.83
2019-02-22T19:50:12.643Z,33.83
2019-02-22T19:55:22.227Z,37.03
2019-02-22T20:00:28.003Z,34.57
2019-02-22T20:05:33.532Z,32.97
2019-02-22T20:10:40.964Z,32.73
2019-02-22T20:15:46.993Z,37.73
2019-02-22T20:20:52.952Z,39.85
2019-02-22T20:26:17.748Z,39.13
2019-02-22T20:31:23.866Z,35.07
2019-02-22T20:36:29.167Z,34.63
2019-02-22T20:41:34.436Z,32.63
2019-02-22T20:46:44.270Z,32.53
2019-02-22T20:51:49.996Z,33.03
2019-02-22T20:57:29.185Z,40.47
2019-02-22T21:02:34.511Z,40.30
2019-02-22T21:07:39.615Z,35.77
2019-02-22T21:12:44.770Z,40.20
2019-02-22T21:17:50.492Z,37.73
2019-02-22T21:22:55.908Z,39.23
2019-02-22T21:28:01.103Z,37.97
2019-02-22T21:33:10.936Z,36.30
2019-02-22T21:38:22.441Z,37.23
2019-02-22T21:43:29.651Z,36.20
2019-02-22T21:48:34.945Z,42.50
2019-02-22T21:53:40.928Z,32.07
2019-02-22T21:58:48.611Z,32.60
2019-02-22T22:03:54.048Z,41.23
2019-02-22T22:08:59.700Z,43.00
2019-02-22T22:14:07.546Z,40.50
2019-02-22T22:19:14.270Z,36.30
2019-02-22T22:24:19.884Z,37.57
2019-02-22T22:29:25.179Z,39.00
2019-02-22T22:34:30.836Z,41.60
2019-02-22T22:39:36.414Z,44.00
2019-02-22T22:44:42.061Z,39.17
2019-02-22T22:49:48.008Z,42.97
2019-02-22T22:54:54.094Z,39.33
2019-02-22T22:59:59.766Z,43.80
2019-02-22T23:05:05.056Z,44.23
2019-02-22T23:10:12.444Z,38.13
2019-02-22T23:15:17.714Z,35.33
2019-02-22T23:20:23.434Z,40.00
2019-02-22T23:25:28.686Z,37.13
2019-02-22T23:30:34.865Z,34.67
2019-02-22T23:35:40.078Z,39.17
2019-02-22T23:40:45.217Z,37.03
2019-02-22T23:45:50.399Z,38.03
2019-02-22T23:51:01.085Z,33.77
2019-02-22T23:56:10.931Z,35.57
